createdAt,value
2017-06-10T00:00:36.093Z,80.00
2017-06-10T00:03:02.084Z,79.50
2017-06-10T00:05:28.808Z,79.10
2017-06-10T00:07:54.825Z,79.00
2017-06-10T00:10:20.776Z,80.20
2017-06-10T00:12:46.738Z,80.00
2017-06-10T00:15:12.749Z,79.80
2017-06-10T00:17:38.711Z,82.30
2017-06-10T00:20:04.735Z,81.90
2017-06-10T00:22:30.712Z,81.00
2017-06-10T00:24:56.669Z,79.60
2017-06-10T00:27:23.405Z,81.10
2017-06-10T00:29:50.218Z,81.00
2017-06-10T00:32:16.916Z,84.30
2017-06-10T00:34:42.915Z,83.70
2017-06-10T00:37:08.904Z,83.90
2017-06-10T00:39:34.866Z,86.10
2017-06-10T00:42:01.577Z,87.10
2017-06-10T00:44:27.561Z,87.10
2017-06-10T00:46:53.530Z,91.10
2017-06-10T00:49:19.509Z,92.00
2017-06-10T00:51:45.469Z,90.30
2017-06-10T00:54:11.453Z,90.60
2017-06-10T00:56:37.409Z,91.00
2017-06-10T00:59:03.409Z,92.50
2017-06-10T01:01:29.385Z,91.20
2017-06-10T01:03:55.370Z,91.40
2017-06-10T01:06:22.073Z,93.00
2017-06-10T01:08:48.069Z,92.90
2017-06-10T01:11:14.069Z,91.90
2017-06-10T01:13:40.037Z,91.30
2017-06-10T01:16:06.777Z,94.00
2017-06-10T01:18:32.742Z,94.00
2017-06-10T01:20:58.730Z,94.40
2017-06-10T01:23:24.692Z,96.10
2017-06-10T01:25:50.679Z,95.50
2017-06-10T01:28:16.693Z,95.20
2017-06-10T01:30:43.421Z,96.50
2017-06-10T01:33:10.181Z,96.80
2017-06-10T01:35:36.130Z,96.80
2017-06-10T01:38:02.115Z,96.10
2017-06-10T01:40:28.078Z,96.90
2017-06-10T01:42:54.842Z,97.60
2017-06-10T01:45:20.789Z,97.60
2017-06-10T01:47:46.743Z,96.70
2017-06-10T01:50:12.743Z,97.40
2017-06-10T01:52:38.702Z,98.00
2017-06-10T01:55:04.743Z,98.80
2017-06-10T01:57:30.698Z,98.50
2017-06-10T01:59:56.642Z,97.70
2017-06-10T02:02:22.629Z,97.20
2017-06-10T02:04:48.577Z,97.60
2017-06-10T02:07:15.267Z,99.10
2017-06-10T02:09:41.302Z,99.10
2017-06-10T02:12:07.254Z,99.40
2017-06-10T02:14:33.289Z,99.70
2017-06-10T02:16:59.249Z,99.30
2017-06-10T02:19:25.210Z,98.30
2017-06-10T02:21:51.210Z,99.10
2017-06-10T02:24:17.161Z,98.80
2017-06-10T02:26:43.862Z,97.90
2017-06-10T02:29:09.909Z,97.90
2017-06-10T02:31:35.902Z,97.70
2017-06-10T02:34:02.618Z,97.50
2017-06-10T02:36:28.618Z,97.50
2017-06-10T02:38:54.565Z,98.00
2017-06-10T02:41:20.505Z,97.70
2017-06-10T02:43:46.494Z,97.40
2017-06-10T02:46:12.438Z,97.50
2017-06-10T02:48:38.418Z,96.30
2017-06-10T02:51:04.387Z,96.60
2017-06-10T02:53:30.435Z,96.60
2017-06-10T02:55:56.431Z,96.60
2017-06-10T02:58:22.373Z,96.30
2017-06-10T03:00:48.356Z,96.30
2017-06-10T03:03:14.310Z,96.50
2017-06-10T03:05:40.330Z,96.70
2017-06-10T03:08:07.062Z,96.20
2017-06-10T03:10:33.024Z,96.40
2017-06-10T03:12:59.073Z,96.70
2017-06-10T03:15:25.761Z,96.80
2017-06-10T03:17:51.709Z,96.80
2017-06-10T03:20:18.429Z,96.80
2017-06-10T03:22:44.381Z,96.70
2017-06-10T03:25:10.413Z,96.70
2017-06-10T03:27:36.381Z,96.80
2017-06-10T03:30:02.361Z,96.90
2017-06-10T03:32:28.343Z,96.90
2017-06-10T03:34:54.298Z,97.10
2017-06-10T03:37:20.304Z,96.70
2017-06-10T03:39:47.013Z,97.00
2017-06-10T03:42:13.721Z,96.90
2017-06-10T03:44:39.722Z,97.00
2017-06-10T03:47:05.695Z,96.80
2017-06-10T03:49:31.701Z,96.70
2017-06-10T03:51:57.677Z,97.00
2017-06-10T03:54:23.617Z,96.90
2017-06-10T03:56:49.604Z,96.90
2017-06-10T03:59:15.575Z,96.80
2017-06-10T04:01:41.517Z,96.50
2017-06-10T04:04:08.255Z,96.50
2017-06-10T04:06:34.206Z,96.40
2017-06-10T04:09:00.234Z,96.30
2017-06-10T04:11:26.229Z,96.60
2017-06-10T04:13:52.173Z,96.50
2017-06-10T04:16:18.913Z,96.90
2017-06-10T04:18:45.607Z,97.20
2017-06-10T04:21:11.623Z,97.10
2017-06-10T04:23:37.595Z,97.10
2017-06-10T04:26:03.557Z,97.00
2017-06-10T04:28:29.577Z,97.20
2017-06-10T04:30:55.561Z,97.20
2017-06-10T04:33:21.522Z,97.00
2017-06-10T04:35:47.517Z,97.00
2017-06-10T04:38:13.486Z,97.10
2017-06-10T04:40:39.485Z,97.30
2017-06-10T04:43:05.441Z,97.40
2017-06-10T04:45:31.438Z,97.30
2017-06-10T04:47:57.437Z,96.90
2017-06-10T04:50:24.145Z,96.70
2017-06-10T04:52:50.147Z,96.70
2017-06-10T04:55:16.102Z,96.60
2017-06-10T04:57:42.089Z,96.60
2017-06-10T05:00:08.826Z,96.20
2017-06-10T05:02:34.801Z,96.20
2017-06-10T05:05:01.557Z,96.40
2017-06-10T05:07:27.513Z,95.90
2017-06-10T05:09:53.465Z,96.00
2017-06-10T05:12:20.204Z,96.00
2017-06-10T05:14:46.197Z,96.00
2017-06-10T05:17:12.925Z,95.90
2017-06-10T05:19:38.875Z,95.90
2017-06-10T05:22:04.885Z,96.00
2017-06-10T05:24:30.859Z,96.20
2017-06-10T05:26:56.817Z,95.80
2017-06-10T05:29:22.830Z,96.20
2017-06-10T05:31:48.801Z,96.20
2017-06-10T05:34:14.806Z,96.10
2017-06-10T05:36:40.832Z,96.00
2017-06-10T05:39:06.819Z,96.10
2017-06-10T05:41:32.817Z,95.90
2017-06-10T05:43:58.789Z,96.30
2017-06-10T05:46:24.802Z,96.10
2017-06-10T05:48:50.762Z,95.60
2017-06-10T05:51:16.722Z,95.60
2017-06-10T05:53:42.782Z,96.00
2017-06-10T05:56:08.745Z,95.90
2017-06-10T05:58:34.718Z,95.50
2017-06-10T06:01:00.729Z,95.80
2017-06-10T06:03:26.689Z,95.30
2017-06-10T06:05:52.721Z,95.30
2017-06-10T06:08:18.689Z,95.70
2017-06-10T06:10:44.659Z,95.30
2017-06-10T06:13:10.660Z,95.90
2017-06-10T06:15:36.625Z,95.20
2017-06-10T06:18:03.412Z,94.90
2017-06-10T06:20:29.410Z,94.90
2017-06-10T06:22:55.414Z,95.10
2017-06-10T06:25:21.374Z,94.70
2017-06-10T06:27:47.327Z,95.00
2017-06-10T06:30:13.348Z,94.80
2017-06-10T06:32:39.302Z,94.80
2017-06-10T06:35:06.037Z,93.90
2017-06-10T06:37:32.777Z,93.90
2017-06-10T06:39:58.795Z,93.80
2017-06-10T06:42:24.750Z,93.50
2017-06-10T06:44:50.762Z,93.10
2017-06-10T06:47:16.725Z,93.10
2017-06-10T06:49:42.686Z,93.40
2017-06-10T06:52:08.678Z,93.10
2017-06-10T06:54:34.645Z,92.80
2017-06-10T06:57:00.654Z,93.00
2017-06-10T06:59:26.610Z,92.40
2017-06-10T07:01:52.550Z,92.60
2017-06-10T07:04:18.553Z,92.50
2017-06-10T07:06:45.251Z,90.40
2017-06-10T07:09:11.195Z,90.40
2017-06-10T07:11:37.181Z,90.70
2017-06-10T07:14:03.893Z,89.60
2017-06-10T07:16:29.907Z,89.60
2017-06-10T07:18:55.872Z,88.60
2017-06-10T07:21:21.842Z,88.90
2017-06-10T07:23:48.577Z,86.50
2017-06-10T07:26:15.275Z,86.50
2017-06-10T07:28:41.258Z,86.40
2017-06-10T07:31:07.297Z,84.70
2017-06-10T07:33:33.341Z,83.00
2017-06-10T07:35:59.327Z,84.60
2017-06-10T07:38:26.048Z,83.30
2017-06-10T07:40:52.002Z,83.10
2017-06-10T07:43:17.990Z,82.60
2017-06-10T07:45:43.934Z,83.90
2017-06-10T07:48:09.928Z,78.30
2017-06-10T07:50:35.906Z,78.80
2017-06-10T07:53:01.918Z,76.50
2017-06-10T07:55:27.870Z,74.60
2017-06-10T07:57:53.857Z,73.30
2017-06-10T08:00:19.826Z,75.80
2017-06-10T08:02:46.564Z,75.90
2017-06-10T08:05:13.253Z,78.90
2017-06-10T08:07:39.269Z,78.80
2017-06-10T08:10:05.246Z,77.10
2017-06-10T08:12:31.221Z,74.80
2017-06-10T08:14:57.201Z,72.40
2017-06-10T08:17:23.154Z,72.10
2017-06-10T08:19:49.142Z,73.30
2017-06-10T08:22:15.102Z,74.60
2017-06-10T08:24:41.868Z,70.60
2017-06-10T08:27:07.822Z,70.60
2017-06-10T08:29:33.841Z,71.10
2017-06-10T08:32:00.542Z,71.70
2017-06-10T08:34:26.501Z,70.70
2017-06-10T08:36:52.478Z,72.90
2017-06-10T08:39:18.425Z,73.20
2017-06-10T08:41:44.434Z,73.30
2017-06-10T08:44:10.398Z,71.30
2017-06-10T08:46:36.405Z,69.50
2017-06-10T08:49:02.361Z,70.30
2017-06-10T08:51:28.338Z,68.70
2017-06-10T08:53:55.061Z,68.60
2017-06-10T08:56:21.757Z,67.70
2017-06-10T08:58:47.758Z,67.50
2017-06-10T09:01:13.734Z,67.10
2017-06-10T09:03:39.725Z,67.00
2017-06-10T09:06:06.462Z,68.70
2017-06-10T09:08:32.428Z,68.60
2017-06-10T09:10:58.417Z,69.40
2017-06-10T09:13:24.379Z,68.50
2017-06-10T09:15:50.334Z,68.70
2017-06-10T09:18:16.362Z,69.80
2017-06-10T09:20:42.350Z,68.50
2017-06-10T09:23:08.315Z,69.10
2017-06-10T09:25:34.334Z,66.00
2017-06-10T09:28:01.039Z,66.10
2017-06-10T09:30:27.038Z,65.30
2017-06-10T09:32:53.030Z,65.50
2017-06-10T09:35:18.989Z,65.20
2017-06-10T09:37:45.005Z,65.70
2017-06-10T09:40:10.972Z,66.30
2017-06-10T09:42:36.958Z,65.90
2017-06-10T09:45:02.901Z,66.10
2017-06-10T09:47:28.925Z,65.30
2017-06-10T09:49:55.618Z,63.40
2017-06-10T09:52:21.570Z,63.30
2017-06-10T09:54:47.585Z,63.80
2017-06-10T09:57:13.569Z,64.80
2017-06-10T09:59:40.269Z,66.10
2017-06-10T10:02:06.253Z,66.00
2017-06-10T10:04:32.206Z,65.70
2017-06-10T10:06:58.953Z,65.90
2017-06-10T10:09:24.909Z,66.40
2017-06-10T10:11:50.883Z,64.00
2017-06-10T10:14:16.897Z,65.10
2017-06-10T10:16:42.886Z,66.20
2017-06-10T10:19:08.918Z,65.40
2017-06-10T10:21:34.882Z,66.20
2017-06-10T10:24:00.889Z,63.90
2017-06-10T10:26:26.849Z,64.70
2017-06-10T10:28:52.814Z,66.20
2017-06-10T10:31:18.841Z,62.90
2017-06-10T10:33:44.837Z,65.10
2017-06-10T10:36:10.788Z,60.10
2017-06-10T10:38:36.781Z,59.70
2017-06-10T10:41:02.776Z,59.70
2017-06-10T10:43:28.761Z,59.20
2017-06-10T10:45:54.726Z,58.30
2017-06-10T10:48:20.730Z,59.80
2017-06-10T10:50:46.686Z,58.00
2017-06-10T10:53:12.676Z,57.80
2017-06-10T10:55:39.410Z,57.60
2017-06-10T10:58:06.100Z,57.10
2017-06-10T11:00:32.083Z,57.10
2017-06-10T11:02:58.049Z,57.20
2017-06-10T11:05:24.057Z,57.40
2017-06-10T11:07:50.754Z,56.60
2017-06-10T11:10:16.759Z,56.60
2017-06-10T11:12:42.786Z,57.30
2017-06-10T11:15:08.741Z,57.00
2017-06-10T11:17:34.748Z,52.40
2017-06-10T11:20:00.705Z,52.50
2017-06-10T11:22:26.662Z,53.30
2017-06-10T11:24:52.636Z,53.00
2017-06-10T11:27:18.641Z,52.60
2017-06-10T11:29:44.667Z,52.40
2017-06-10T11:32:10.630Z,50.50
2017-06-10T11:34:37.353Z,51.20
2017-06-10T11:37:04.049Z,51.50
2017-06-10T11:39:30.036Z,50.90
2017-06-10T11:41:55.990Z,50.40
2017-06-10T11:44:21.957Z,50.50
2017-06-10T11:46:48.006Z,51.10
2017-06-10T11:49:14.718Z,52.10
2017-06-10T11:51:40.713Z,51.50
2017-06-10T11:54:06.670Z,50.70
2017-06-10T11:56:32.705Z,50.90
2017-06-10T11:58:58.653Z,51.80
2017-06-10T12:01:24.610Z,50.90
2017-06-10T12:03:50.601Z,49.10
2017-06-10T12:06:16.593Z,50.70
2017-06-10T12:08:42.577Z,52.10
2017-06-10T12:11:08.553Z,51.50
2017-06-10T12:13:34.497Z,51.70
2017-06-10T12:16:00.493Z,50.90
2017-06-10T12:18:26.450Z,51.40
2017-06-10T12:20:52.409Z,50.70
2017-06-10T12:23:19.134Z,49.40
2017-06-10T12:25:45.888Z,47.50
2017-06-10T12:28:11.883Z,47.50
2017-06-10T12:30:38.682Z,45.30
2017-06-10T12:33:04.625Z,45.20
2017-06-10T12:35:30.581Z,43.30
2017-06-10T12:37:56.585Z,42.60
2017-06-10T12:40:22.533Z,41.40
2017-06-10T12:42:48.482Z,39.90
2017-06-10T12:45:14.490Z,39.80
2017-06-10T12:47:40.442Z,38.90
2017-06-10T12:50:06.396Z,36.20
2017-06-10T12:52:32.393Z,34.60
2017-06-10T12:54:58.377Z,34.10
2017-06-10T12:57:25.073Z,38.10
2017-06-10T12:59:51.062Z,38.00
2017-06-10T13:02:17.018Z,36.80
2017-06-10T13:04:43.014Z,35.90
2017-06-10T13:07:09.018Z,34.70
2017-06-10T13:09:35.025Z,32.90
2017-06-10T13:12:00.969Z,32.80
2017-06-10T13:14:27.661Z,32.00
2017-06-10T13:16:53.666Z,31.90
2017-06-10T13:19:19.613Z,33.80
2017-06-10T13:21:46.313Z,31.00
2017-06-10T13:24:12.307Z,30.90
2017-06-10T13:26:38.256Z,30.20
2017-06-10T13:29:04.982Z,31.70
2017-06-10T13:31:30.974Z,31.60
2017-06-10T13:33:57.001Z,29.30
2017-06-10T13:36:23.015Z,31.60
2017-06-10T13:38:49.753Z,30.30
2017-06-10T13:41:15.745Z,30.20
2017-06-10T13:43:42.449Z,29.40
2017-06-10T13:46:08.407Z,29.30
2017-06-10T13:48:34.397Z,29.70
2017-06-10T13:51:00.402Z,29.60
2017-06-10T13:53:27.161Z,28.10
2017-06-10T13:55:53.125Z,28.10
2017-06-10T13:58:19.818Z,32.20
2017-06-10T14:00:45.853Z,31.70
2017-06-10T14:03:11.818Z,33.60
2017-06-10T14:05:37.767Z,34.30
2017-06-10T14:08:03.769Z,35.10
2017-06-10T14:10:29.777Z,34.90
2017-06-10T14:12:55.777Z,33.90
2017-06-10T14:15:21.733Z,33.30
2017-06-10T14:17:47.722Z,30.50
2017-06-10T14:20:13.724Z,32.40
2017-06-10T14:22:39.677Z,32.40
2017-06-10T14:25:05.656Z,30.50
2017-06-10T14:27:31.641Z,30.40
2017-06-10T14:29:57.627Z,29.00
2017-06-10T14:32:23.617Z,29.00
2017-06-10T14:34:49.617Z,27.20
2017-06-10T14:37:15.640Z,26.40
2017-06-10T14:39:41.585Z,27.30
2017-06-10T14:42:07.534Z,27.00
2017-06-10T14:44:33.528Z,28.10
2017-06-10T14:46:59.545Z,28.20
2017-06-10T14:49:25.511Z,27.00
2017-06-10T14:51:51.466Z,26.20
2017-06-10T14:54:17.461Z,27.10
2017-06-10T14:56:44.197Z,27.70
2017-06-10T14:59:10.965Z,27.70
2017-06-10T15:01:36.969Z,28.20
2017-06-10T15:04:02.963Z,28.60
2017-06-10T15:06:28.938Z,28.80
2017-06-10T15:08:54.957Z,28.40
2017-06-10T15:11:20.946Z,28.50
2017-06-10T15:13:47.654Z,32.80
2017-06-10T15:16:13.646Z,32.10
2017-06-10T15:18:39.601Z,34.00
2017-06-10T15:21:05.600Z,34.00
2017-06-10T15:23:31.553Z,31.20
2017-06-10T15:25:58.285Z,30.80
2017-06-10T15:28:24.986Z,31.10
2017-06-10T15:30:51.034Z,31.10
2017-06-10T15:33:16.989Z,32.10
2017-06-10T15:35:42.965Z,33.50
2017-06-10T15:38:08.956Z,33.30
2017-06-10T15:40:34.905Z,34.30
2017-06-10T15:43:00.895Z,35.70
2017-06-10T15:45:26.847Z,36.40
2017-06-10T15:47:52.802Z,36.60
2017-06-10T15:50:18.839Z,35.80
2017-06-10T15:52:44.830Z,35.60
2017-06-10T15:55:10.802Z,34.30
2017-06-10T15:57:37.526Z,36.30
2017-06-10T16:00:04.222Z,36.60
2017-06-10T16:02:30.202Z,36.60
2017-06-10T16:04:56.149Z,36.10
2017-06-10T16:07:22.182Z,37.20
2017-06-10T16:09:48.893Z,39.10
2017-06-10T16:12:14.868Z,39.10
2017-06-10T16:14:40.850Z,39.60
2017-06-10T16:17:06.845Z,39.50
2017-06-10T16:19:32.806Z,39.30
2017-06-10T16:21:58.749Z,39.10
2017-06-10T16:24:24.733Z,37.50
2017-06-10T16:26:50.730Z,37.50
2017-06-10T16:29:16.737Z,37.50
2017-06-10T16:31:42.697Z,37.30
2017-06-10T16:34:09.395Z,38.30
2017-06-10T16:36:35.399Z,38.10
2017-06-10T16:39:01.354Z,38.40
2017-06-10T16:41:27.359Z,39.10
2017-06-10T16:43:53.315Z,39.20
2017-06-10T16:46:19.274Z,37.90
2017-06-10T16:48:45.278Z,38.60
2017-06-10T16:51:11.238Z,38.20
2017-06-10T16:53:37.934Z,39.30
2017-06-10T16:56:03.945Z,39.30
2017-06-10T16:58:29.890Z,39.10
2017-06-10T17:00:55.874Z,39.10
2017-06-10T17:03:22.587Z,39.00
2017-06-10T17:05:48.601Z,39.00
2017-06-10T17:08:14.595Z,39.60
2017-06-10T17:10:40.549Z,39.60
2017-06-10T17:13:06.538Z,39.30
2017-06-10T17:15:33.246Z,39.70
2017-06-10T17:17:59.761Z,39.70
2017-06-10T17:20:25.726Z,40.50
2017-06-10T17:22:51.693Z,41.40
2017-06-10T17:25:17.706Z,41.50
2017-06-10T17:27:43.657Z,41.80
2017-06-10T17:30:09.614Z,41.90
2017-06-10T17:32:35.594Z,42.10
2017-06-10T17:35:01.575Z,42.30
2017-06-10T17:37:27.582Z,42.40
2017-06-10T17:39:54.300Z,43.40
2017-06-10T17:42:20.351Z,42.70
2017-06-10T17:44:46.382Z,43.30
2017-06-10T17:47:12.334Z,42.70
2017-06-10T17:49:38.277Z,43.20
2017-06-10T17:52:04.279Z,43.80
2017-06-10T17:54:30.255Z,43.80
2017-06-10T17:56:56.213Z,44.40
2017-06-10T17:59:22.215Z,44.50
2017-06-10T18:01:48.198Z,44.50
2017-06-10T18:04:14.220Z,44.90
2017-06-10T18:06:40.929Z,46.00
2017-06-10T18:09:07.699Z,46.50
2017-06-10T18:11:33.674Z,46.20
2017-06-10T18:13:59.698Z,47.10
2017-06-10T18:16:25.693Z,47.60
2017-06-10T18:18:52.406Z,48.30
2017-06-10T18:21:18.371Z,48.30
2017-06-10T18:23:48.317Z,48.60
2017-06-10T18:26:14.279Z,48.50
2017-06-10T18:28:40.229Z,48.80
2017-06-10T18:31:06.329Z,48.40
2017-06-10T18:33:32.331Z,48.50
2017-06-10T18:35:58.353Z,48.80
2017-06-10T18:38:24.355Z,49.30
2017-06-10T18:40:50.310Z,49.70
2017-06-10T18:43:17.225Z,49.80
2017-06-10T18:45:43.251Z,50.20
2017-06-10T18:48:09.200Z,50.80
2017-06-10T18:50:35.141Z,51.00
2017-06-10T18:53:01.886Z,51.10
2017-06-10T18:55:27.841Z,51.70
2017-06-10T18:57:53.805Z,51.50
2017-06-10T19:00:19.825Z,51.50
2017-06-10T19:02:45.794Z,51.50
2017-06-10T19:05:12.554Z,52.10
2017-06-10T19:07:38.510Z,52.10
2017-06-10T19:10:04.462Z,51.60
2017-06-10T19:12:30.458Z,52.50
2017-06-10T19:14:56.410Z,52.20
2017-06-10T19:17:22.446Z,52.50
2017-06-10T19:19:48.469Z,52.60
2017-06-10T19:22:15.178Z,52.80
2017-06-10T19:24:41.166Z,52.60
2017-06-10T19:27:07.126Z,53.10
2017-06-10T19:29:33.149Z,53.00
2017-06-10T19:31:59.130Z,53.20
2017-06-10T19:34:25.095Z,53.00
2017-06-10T19:36:51.128Z,53.90
2017-06-10T19:39:17.089Z,55.00
2017-06-10T19:41:43.072Z,54.90
2017-06-10T19:44:09.030Z,55.30
2017-06-10T19:46:35.026Z,54.70
2017-06-10T19:49:01.016Z,56.30
2017-06-10T19:51:27.014Z,57.10
2017-06-10T19:53:52.978Z,57.20
2017-06-10T19:56:19.733Z,58.70
2017-06-10T19:58:45.685Z,58.60
2017-06-10T20:01:11.661Z,58.50
2017-06-10T20:03:37.613Z,58.90
2017-06-10T20:06:03.643Z,58.80
2017-06-10T20:08:30.407Z,59.60
2017-06-10T20:10:56.405Z,59.60
2017-06-10T20:13:22.389Z,60.70
2017-06-10T20:15:48.348Z,61.20
2017-06-10T20:18:14.338Z,61.10
2017-06-10T20:20:40.321Z,60.60
2017-06-10T20:23:06.314Z,60.80
2017-06-10T20:25:33.057Z,61.70
2017-06-10T20:27:59.129Z,61.50
2017-06-10T20:30:25.078Z,62.80
2017-06-10T20:32:51.065Z,63.30
2017-06-10T20:35:17.806Z,62.50
2017-06-10T20:37:43.762Z,62.50
2017-06-10T20:40:09.745Z,62.40
2017-06-10T20:42:35.697Z,63.10
2017-06-10T20:45:01.760Z,63.90
2017-06-10T20:47:27.718Z,64.40
2017-06-10T20:49:53.677Z,65.60
2017-06-10T20:52:19.661Z,66.60
2017-06-10T20:54:45.606Z,67.30
2017-06-10T20:57:11.590Z,67.20
2017-06-10T20:59:37.573Z,67.40
2017-06-10T21:02:04.343Z,68.50
2017-06-10T21:04:30.357Z,67.60
2017-06-10T21:06:56.318Z,67.50
2017-06-10T21:09:23.057Z,67.60
2017-06-10T21:11:49.017Z,67.60
2017-06-10T21:14:15.046Z,67.40
2017-06-10T21:16:40.993Z,68.00
2017-06-10T21:19:06.962Z,68.70
2017-06-10T21:21:32.961Z,68.60
2017-06-10T21:23:58.943Z,68.90
2017-06-10T21:26:24.953Z,68.30
2017-06-10T21:28:50.914Z,70.20
2017-06-10T21:31:17.695Z,70.00
2017-06-10T21:33:43.676Z,70.00
2017-06-10T21:36:09.670Z,70.80
2017-06-10T21:38:36.374Z,70.80
2017-06-10T21:41:02.420Z,70.70
2017-06-10T21:43:28.425Z,71.00
2017-06-10T21:45:54.426Z,71.50
2017-06-10T21:48:21.128Z,71.50
2017-06-10T21:50:47.088Z,71.40
2017-06-10T21:53:13.088Z,71.40
2017-06-10T21:55:39.038Z,72.30
2017-06-10T21:58:05.037Z,72.80
2017-06-10T22:00:31.044Z,72.50
2017-06-10T22:02:57.006Z,73.50
2017-06-10T22:05:23.042Z,73.30
2017-06-10T22:07:48.998Z,73.50
2017-06-10T22:10:15.689Z,73.90
2017-06-10T22:12:41.677Z,73.20
2017-06-10T22:15:07.669Z,73.50
2017-06-10T22:17:33.634Z,74.40
2017-06-10T22:19:59.613Z,73.50
2017-06-10T22:22:25.619Z,74.30
2017-06-10T22:24:51.571Z,74.40
2017-06-10T22:27:17.570Z,74.00
2017-06-10T22:29:43.549Z,75.40
2017-06-10T22:32:09.569Z,74.90
2017-06-10T22:34:35.570Z,74.00
2017-06-10T22:37:01.521Z,74.10
2017-06-10T22:39:27.577Z,74.10
2017-06-10T22:41:53.594Z,74.90
2017-06-10T22:44:19.558Z,74.80
2017-06-10T22:46:45.549Z,75.70
2017-06-10T22:49:12.246Z,76.70
2017-06-10T22:51:38.244Z,76.70
2017-06-10T22:54:04.214Z,76.90
2017-06-10T22:56:30.205Z,75.70
2017-06-10T22:58:56.923Z,76.40
2017-06-10T23:01:22.896Z,76.30
2017-06-10T23:03:48.882Z,77.10
2017-06-10T23:06:14.830Z,78.40
2017-06-10T23:08:40.818Z,77.40
2017-06-10T23:11:06.814Z,79.00
2017-06-10T23:13:32.778Z,79.50
2017-06-10T23:15:58.744Z,79.80
2017-06-10T23:18:24.725Z,79.20
2017-06-10T23:20:51.434Z,80.20
2017-06-10T23:23:17.453Z,80.20
2017-06-10T23:25:43.406Z,80.70
2017-06-10T23:28:09.397Z,81.50
2017-06-10T23:30:35.349Z,81.30
2017-06-10T23:33:01.379Z,82.40
2017-06-10T23:35:27.386Z,83.20
2017-06-10T23:37:53.354Z,83.80
2017-06-10T23:40:19.345Z,83.70
2017-06-10T23:42:45.354Z,83.30
2017-06-10T23:45:11.311Z,82.20
2017-06-10T23:47:37.311Z,83.60
2017-06-10T23:50:03.311Z,83.40
2017-06-10T23:52:29.263Z,84.10
2017-06-10T23:54:55.233Z,83.70
2017-06-10T23:57:21.236Z,83.60
2017-06-10T23:59:47.205Z,83.40
